sensor_id;sensor_type;location;lat;lon;timestamp;pressure;altitude;pressure_sealevel;temperature;humidity
46876;BME280;32866;50.160;14.768;2023-02-02T00:00:47;99063.53;;;2.02;100.00
46876;BME280;32866;50.160;14.768;2023-02-02T00:03:12;99065.09;;;1.81;100.00
46876;BME280;32866;50.160;14.768;2023-02-02T00:05:37;99053.91;;;1.87;100.00
46876;BME280;32866;50.160;14.768;2023-02-02T00:08:03;99046.56;;;1.87;100.00
46876;BME280;32866;50.160;14.768;2023-02-02T00:10:29;99072.41;;;2.02;100.00
46876;BME280;32866;50.160;14.768;2023-02-02T00:12:54;99072.41;;;2.02;100.00
46876;BME280;32866;50.160;14.768;2023-02-02T00:15:23;99083.59;;;2.22;100.00
46876;BME280;32866;50.160;14.768;2023-02-02T00:17:48;99085.94;;;2.20;100.00
46876;BME280;32866;50.160;14.768;2023-02-02T00:20:14;99065.09;;;1.96;100.00
46876;BME280;32866;50.160;14.768;2023-02-02T00:22:42;99083.25;;;2.10;100.00
46876;BME280;32866;50.160;14.768;2023-02-02T00:25:08;99049.66;;;1.85;100.00
46876;BME280;32866;50.160;14.768;2023-02-02T00:27:43;99049.28;;;1.83;100.00
46876;BME280;32866;50.160;14.768;2023-02-02T00:30:09;99049.63;;;1.93;100.00
46876;BME280;32866;50.160;14.768;2023-02-02T00:32:57;99071.25;;;2.29;100.00
46876;BME280;32866;50.160;14.768;2023-02-02T00:35:25;99046.94;;;2.00;100.00
46876;BME280;32866;50.160;14.768;2023-02-02T00:37:51;99077.41;;;2.26;100.00
46876;BME280;32866;50.160;14.768;2023-02-02T00:40:16;99063.94;;;2.11;100.00
46876;BME280;32866;50.160;14.768;2023-02-02T00:42:42;99060.44;;;2.11;100.00
46876;BME280;32866;50.160;14.768;2023-02-02T00:45:13;99062.00;;;2.15;100.00
46876;BME280;32866;50.160;14.768;2023-02-02T00:47:46;99067.78;;;2.17;100.00
46876;BME280;32866;50.160;14.768;2023-02-02T00:50:19;99070.50;;;2.10;100.00
46876;BME280;32866;50.160;14.768;2023-02-02T00:52:46;99040.38;;;1.76;100.00
46876;BME280;32866;50.160;14.768;2023-02-02T00:55:12;99064.31;;;1.99;100.00
46876;BME280;32866;50.160;14.768;2023-02-02T00:57:38;99038.06;;;1.63;100.00
46876;BME280;32866;50.160;14.768;2023-02-02T01:00:06;99065.09;;;1.96;100.00
46876;BME280;32866;50.160;14.768;2023-02-02T01:02:35;99047.31;;;2.02;100.00
46876;BME280;32866;50.160;14.768;2023-02-02T01:05:02;99058.91;;;2.10;100.00
46876;BME280;32866;50.160;14.768;2023-02-02T01:07:27;99052.38;;;1.96;100.00
46876;BME280;32866;50.160;14.768;2023-02-02T01:09:52;99037.66;;;2.01;100.00
46876;BME280;32866;50.160;14.768;2023-02-02T01:12:18;99049.28;;;1.98;100.00
46876;BME280;32866;50.160;14.768;2023-02-02T01:14:43;99047.72;;;2.00;100.00
46876;BME280;32866;50.160;14.768;2023-02-02T01:17:09;99017.25;;;1.57;100.00
46876;BME280;32866;50.160;14.768;2023-02-02T01:19:34;99034.59;;;1.81;100.00
46876;BME280;32866;50.160;14.768;2023-02-02T01:21:59;99025.75;;;1.66;100.00
46876;BME280;32866;50.160;14.768;2023-02-02T01:24:25;99031.13;;;1.73;100.00
46876;BME280;32866;50.160;14.768;2023-02-02T01:26:50;99035.00;;;1.72;100.00
46876;BME280;32866;50.160;14.768;2023-02-02T01:29:16;99045.81;;;1.87;100.00
46876;BME280;32866;50.160;14.768;2023-02-02T01:31:41;99031.91;;;1.74;100.00
46876;BME280;32866;50.160;14.768;2023-02-02T01:34:07;99035.75;;;1.62;100.00
46876;BME280;32866;50.160;14.768;2023-02-02T01:36:33;99063.94;;;1.79;100.00
46876;BME280;32866;50.160;14.768;2023-02-02T01:38:58;99055.47;;;1.66;100.00
46876;BME280;32866;50.160;14.768;2023-02-02T01:41:25;99043.47;;;1.60;100.00
46876;BME280;32866;50.160;14.768;2023-02-02T01:43:59;99012.22;;;1.62;100.00
46876;BME280;32866;50.160;14.768;2023-02-02T01:46:32;99033.06;;;1.80;100.00
46876;BME280;32866;50.160;14.768;2023-02-02T01:49:15;99057.34;;;2.19;100.00
46876;BME280;32866;50.160;14.768;2023-02-02T01:51:47;99072.41;;;2.24;100.00
46876;BME280;32866;50.160;14.768;2023-02-02T01:54:20;99041.94;;;1.95;100.00
46876;BME280;32866;50.160;14.768;2023-02-02T01:56:51;99077.03;;;2.23;100.00
46876;BME280;32866;50.160;14.768;2023-02-02T01:59:18;99037.28;;;2.02;100.00
46876;BME280;32866;50.160;14.768;2023-02-02T02:01:45;99031.13;;;1.95;100.00
46876;BME280;32866;50.160;14.768;2023-02-02T02:04:12;99066.63;;;2.04;100.00
46876;BME280;32866;50.160;14.768;2023-02-02T02:06:37;99067.03;;;1.99;100.00
46876;BME280;32866;50.160;14.768;2023-02-02T02:09:05;99072.81;;;1.87;100.00
46876;BME280;32866;50.160;14.768;2023-02-02T02:11:32;99067.03;;;1.74;100.00
46876;BME280;32866;50.160;14.768;2023-02-02T02:14:00;99066.25;;;1.98;100.00
46876;BME280;32866;50.160;14.768;2023-02-02T02:22:15;99062.41;;;1.85;100.00
46876;BME280;32866;50.160;14.768;2023-02-02T02:34:02;99055.81;;;2.00;100.00
46876;BME280;32866;50.160;14.768;2023-02-02T02:41:43;99025.34;;;1.85;100.00
46876;BME280;32866;50.160;14.768;2023-02-02T02:44:13;99055.81;;;2.04;100.00
46876;BME280;32866;50.160;14.768;2023-02-02T02:46:41;99036.88;;;2.08;100.00
46876;BME280;32866;50.160;14.768;2023-02-02T02:49:07;99054.63;;;2.27;100.00
46876;BME280;32866;50.160;14.768;2023-02-02T02:51:51;99033.81;;;2.16;100.00
46876;BME280;32866;50.160;14.768;2023-02-02T03:07:53;99045.66;;;2.51;100.00
46876;BME280;32866;50.160;14.768;2023-02-02T03:10:23;99054.56;;;2.55;100.00
46876;BME280;32866;50.160;14.768;2023-02-02T03:12:50;99062.69;;;2.55;100.00
46876;BME280;32866;50.160;14.768;2023-02-02T03:15:17;99057.66;;;2.50;100.00
46876;BME280;32866;50.160;14.768;2023-02-02T03:17:45;99027.56;;;2.37;100.00
46876;BME280;32866;50.160;14.768;2023-02-02T03:20:12;99062.31;;;2.53;100.00
46876;BME280;32866;50.160;14.768;2023-02-02T03:22:37;99058.81;;;2.60;100.00
46876;BME280;32866;50.160;14.768;2023-02-02T03:25:03;99059.94;;;2.63;100.00
46876;BME280;32866;50.160;14.768;2023-02-02T03:27:28;99071.59;;;2.49;100.00
46876;BME280;32866;50.160;14.768;2023-02-02T03:29:54;99071.22;;;2.43;100.00
46876;BME280;32866;50.160;14.768;2023-02-02T03:32:20;99050.72;;;2.42;100.00
46876;BME280;32866;50.160;14.768;2023-02-02T03:34:45;99074.66;;;2.51;100.00
46876;BME280;32866;50.160;14.768;2023-02-02T03:37:10;99078.19;;;2.37;100.00
46876;BME280;32866;50.160;14.768;2023-02-02T03:39:36;99042.28;;;2.18;100.00
46876;BME280;32866;50.160;14.768;2023-02-02T03:42:01;99061.94;;;2.44;100.00
46876;BME280;32866;50.160;14.768;2023-02-02T03:44:26;99072.78;;;2.26;100.00
46876;BME280;32866;50.160;14.768;2023-02-02T03:46:53;99070.06;;;2.40;100.00
46876;BME280;32866;50.160;14.768;2023-02-02T03:49:19;99058.88;;;2.24;100.00
46876;BME280;32866;50.160;14.768;2023-02-02T03:51:44;99056.59;;;2.15;100.00
46876;BME280;32866;50.160;14.768;2023-02-02T03:54:09;99059.66;;;2.25;100.00
46876;BME280;32866;50.160;14.768;2023-02-02T03:56:35;99033.41;;;2.11;100.00
46876;BME280;32866;50.160;14.768;2023-02-02T03:59:00;99074.31;;;2.34;100.00
46876;BME280;32866;50.160;14.768;2023-02-02T04:01:27;99067.72;;;2.46;100.00
46876;BME280;32866;50.160;14.768;2023-02-02T04:03:53;99055.38;;;2.31;100.00
46876;BME280;32866;50.160;14.768;2023-02-02T04:06:19;99069.31;;;2.26;100.00
46876;BME280;32866;50.160;14.768;2023-02-02T04:08:44;99067.34;;;2.44;100.00
46876;BME280;32866;50.160;14.768;2023-02-02T04:11:10;99053.88;;;2.30;100.00
46876;BME280;32866;50.160;14.768;2023-02-02T04:13:35;99068.13;;;2.48;100.00
46876;BME280;32866;50.160;14.768;2023-02-02T04:16:01;99072.00;;;2.40;100.00
46876;BME280;32866;50.160;14.768;2023-02-02T04:18:26;99018.69;;;2.26;100.00
46876;BME280;32866;50.160;14.768;2023-02-02T04:20:56;99064.22;;;2.60;100.00
46876;BME280;32866;50.160;14.768;2023-02-02T04:23:22;99068.88;;;2.52;100.00
46876;BME280;32866;50.160;14.768;2023-02-02T04:25:49;99042.66;;;2.35;100.00
46876;BME280;32866;50.160;14.768;2023-02-02T04:28:15;99051.13;;;2.40;100.00
46876;BME280;32866;50.160;14.768;2023-02-02T04:30:40;99069.63;;;2.49;100.00
46876;BME280;32866;50.160;14.768;2023-02-02T04:33:06;99072.34;;;2.46;100.00
46876;BME280;32866;50.160;14.768;2023-02-02T04:35:31;99033.34;;;2.36;100.00
46876;BME280;32866;50.160;14.768;2023-02-02T04:37:57;99078.88;;;2.63;100.00
46876;BME280;32866;50.160;14.768;2023-02-02T04:40:22;99093.56;;;2.69;100.00
46876;BME280;32866;50.160;14.768;2023-02-02T04:42:47;99068.84;;;2.59;100.00
46876;BME280;32866;50.160;14.768;2023-02-02T04:45:13;99082.75;;;2.62;100.00
46876;BME280;32866;50.160;14.768;2023-02-02T04:47:38;99055.00;;;2.36;100.00
46876;BME280;32866;50.160;14.768;2023-02-02T04:50:04;99091.63;;;2.66;100.00
46876;BME280;32866;50.160;14.768;2023-02-02T04:52:29;99111.28;;;2.84;100.00
46876;BME280;32866;50.160;14.768;2023-02-02T04:54:55;99076.56;;;2.57;100.00
46876;BME280;32866;50.160;14.768;2023-02-02T04:57:20;99109.72;;;2.90;100.00
46876;BME280;32866;50.160;14.768;2023-02-02T04:59:46;99103.19;;;2.81;100.00
46876;BME280;32866;50.160;14.768;2023-02-02T05:02:11;99077.34;;;2.65;100.00
46876;BME280;32866;50.160;14.768;2023-02-02T05:04:36;99103.56;;;2.79;100.00
46876;BME280;32866;50.160;14.768;2023-02-02T05:07:02;99111.31;;;2.81;100.00
46876;BME280;32866;50.160;14.768;2023-02-02T05:09:27;99108.94;;;2.86;100.00
46876;BME280;32866;50.160;14.768;2023-02-02T05:11:52;99103.56;;;2.79;100.00
46876;BME280;32866;50.160;14.768;2023-02-02T05:14:18;99116.31;;;2.82;100.00
46876;BME280;32866;50.160;14.768;2023-02-02T05:16:44;99116.69;;;2.84;100.00
46876;BME280;32866;50.160;14.768;2023-02-02T05:19:10;99121.75;;;2.78;100.00
46876;BME280;32866;50.160;14.768;2023-02-02T05:21:36;99130.25;;;2.77;100.00
46876;BME280;32866;50.160;14.768;2023-02-02T05:24:02;99128.34;;;2.74;100.00
46876;BME280;32866;50.160;14.768;2023-02-02T05:26:28;99128.31;;;2.77;100.00
46876;BME280;32866;50.160;14.768;2023-02-02T05:28:54;99127.56;;;2.77;100.00
46876;BME280;32866;50.160;14.768;2023-02-02T05:31:20;99123.69;;;2.74;100.00
46876;BME280;32866;50.160;14.768;2023-02-02T05:33:45;99126.38;;;2.78;100.00
46876;BME280;32866;50.160;14.768;2023-02-02T05:36:10;99129.09;;;2.85;100.00
46876;BME280;32866;50.160;14.768;2023-02-02T05:38:36;99130.63;;;2.79;100.00
46876;BME280;32866;50.160;14.768;2023-02-02T05:41:02;99126.03;;;2.69;100.00
46876;BME280;32866;50.160;14.768;2023-02-02T05:43:28;99113.25;;;2.73;100.00
46876;BME280;32866;50.160;14.768;2023-02-02T05:45:54;99140.63;;;2.96;100.00
46876;BME280;32866;50.160;14.768;2023-02-02T05:48:20;99130.59;;;2.97;100.00
46876;BME280;32866;50.160;14.768;2023-02-02T05:51:06;99151.03;;;3.02;100.00
46876;BME280;32866;50.160;14.768;2023-02-02T05:53:34;99120.22;;;2.70;100.00
46876;BME280;32866;50.160;14.768;2023-02-02T05:56:00;99146.81;;;3.01;100.00
46876;BME280;32866;50.160;14.768;2023-02-02T05:58:25;99131.38;;;2.90;100.00
46876;BME280;32866;50.160;14.768;2023-02-02T06:00:52;99155.31;;;3.03;100.00
46876;BME280;32866;50.160;14.768;2023-02-02T06:03:17;99119.06;;;2.68;100.00
46876;BME280;32866;50.160;14.768;2023-02-02T06:05:43;99162.66;;;3.02;100.00
46876;BME280;32866;50.160;14.768;2023-02-02T06:08:08;99128.72;;;2.72;100.00
46876;BME280;32866;50.160;14.768;2023-02-02T06:10:34;99134.91;;;2.80;100.00
46876;BME280;32866;50.160;14.768;2023-02-02T06:12:59;99162.34;;;2.82;100.00
46876;BME280;32866;50.160;14.768;2023-02-02T06:15:24;99163.44;;;2.99;100.00
46876;BME280;32866;50.160;14.768;2023-02-02T06:17:51;99170.03;;;2.94;100.00
46876;BME280;32866;50.160;14.768;2023-02-02T06:20:17;99163.47;;;2.95;100.00
46876;BME280;32866;50.160;14.768;2023-02-02T06:22:42;99173.13;;;2.93;100.00
46876;BME280;32866;50.160;14.768;2023-02-02T06:25:08;99149.56;;;2.86;100.00
46876;BME280;32866;50.160;14.768;2023-02-02T06:27:34;99154.56;;;2.88;100.00
46876;BME280;32866;50.160;14.768;2023-02-02T06:29:59;99172.72;;;2.94;100.00
46876;BME280;32866;50.160;14.768;2023-02-02T06:32:24;99163.53;;;2.63;100.00
46876;BME280;32866;50.160;14.768;2023-02-02T06:34:52;99184.34;;;2.91;100.00
46876;BME280;32866;50.160;14.768;2023-02-02T06:37:17;99175.50;;;2.80;100.00
46876;BME280;32866;50.160;14.768;2023-02-02T06:39:43;99182.44;;;2.88;100.00
46876;BME280;32866;50.160;14.768;2023-02-02T06:42:08;99165.44;;;2.77;100.00
46876;BME280;32866;50.160;14.768;2023-02-02T06:44:34;99190.94;;;2.90;100.00
46876;BME280;32866;50.160;14.768;2023-02-02T06:46:59;99206.41;;;2.93;100.00
46876;BME280;32866;50.160;14.768;2023-02-02T06:49:25;99182.44;;;2.88;100.00
46876;BME280;32866;50.160;14.768;2023-02-02T06:51:50;99172.44;;;2.64;100.00
46876;BME280;32866;50.160;14.768;2023-02-02T06:54:15;99197.53;;;2.82;100.00
46876;BME280;32866;50.160;14.768;2023-02-02T06:56:41;99207.56;;;2.89;100.00
46876;BME280;32866;50.160;14.768;2023-02-02T07:01:48;99187.47;;;2.79;100.00
46876;BME280;32866;50.160;14.768;2023-02-02T07:04:13;99184.78;;;2.75;100.00
46876;BME280;32866;50.160;14.768;2023-02-02T07:09:14;99203.28;;;2.91;100.00
46876;BME280;32866;50.160;14.768;2023-02-02T07:11:39;99183.22;;;2.78;100.00
46876;BME280;32866;50.160;14.768;2023-02-02T07:14:10;99198.66;;;2.92;100.00
46876;BME280;32866;50.160;14.768;2023-02-02T07:16:36;99218.72;;;3.09;100.00
46876;BME280;32866;50.160;14.768;2023-02-02T07:19:01;99174.72;;;2.72;100.00
46876;BME280;32866;50.160;14.768;2023-02-02T07:21:27;99216.38;;;3.18;100.00
46876;BME280;32866;50.160;14.768;2023-02-02T07:23:54;99213.31;;;3.02;100.00
46876;BME280;32866;50.160;14.768;2023-02-02T07:26:19;99216.44;;;3.04;100.00
46876;BME280;32866;50.160;14.768;2023-02-02T07:28:45;99241.91;;;3.10;100.00
46876;BME280;32866;50.160;14.768;2023-02-02T07:31:18;99240.75;;;3.14;100.00
46876;BME280;32866;50.160;14.768;2023-02-02T07:33:45;99243.84;;;3.16;100.00
46876;BME280;32866;50.160;14.768;2023-02-02T07:36:13;99244.63;;;3.21;100.00
46876;BME280;32866;50.160;14.768;2023-02-02T07:38:40;99250.81;;;3.18;100.00
46876;BME280;32866;50.160;14.768;2023-02-02T07:41:06;99240.38;;;3.16;100.00
46876;BME280;32866;50.160;14.768;2023-02-02T07:43:31;99237.22;;;3.28;100.00
46876;BME280;32866;50.160;14.768;2023-02-02T07:46:00;99226.06;;;3.05;100.00
46876;BME280;32866;50.160;14.768;2023-02-02T07:48:28;99250.44;;;3.12;100.00
46876;BME280;32866;50.160;14.768;2023-02-02T07:50:57;99252.78;;;2.95;100.00
46876;BME280;32866;50.160;14.768;2023-02-02T07:53:22;99275.16;;;3.28;100.00
46876;BME280;32866;50.160;14.768;2023-02-02T07:55:48;99273.19;;;3.40;100.00
46876;BME280;32866;50.160;14.768;2023-02-02T07:58:13;99258.16;;;3.24;100.00
46876;BME280;32866;50.160;14.768;2023-02-02T08:00:38;99275.91;;;3.40;100.00
46876;BME280;32866;50.160;14.768;2023-02-02T08:03:04;99262.41;;;3.29;100.00
46876;BME280;32866;50.160;14.768;2023-02-02T08:05:29;99270.91;;;3.31;100.00
46876;BME280;32866;50.160;14.768;2023-02-02T08:07:56;99258.16;;;3.24;100.00
46876;BME280;32866;50.160;14.768;2023-02-02T08:10:22;99266.63;;;3.41;100.00
46876;BME280;32866;50.160;14.768;2023-02-02T08:12:47;99285.88;;;3.64;100.00
46876;BME280;32866;50.160;14.768;2023-02-02T08:15:12;99285.88;;;3.64;100.00
46876;BME280;32866;50.160;14.768;2023-02-02T08:17:43;99293.25;;;3.64;100.00
46876;BME280;32866;50.160;14.768;2023-02-02T08:20:10;99288.63;;;3.50;100.00
46876;BME280;32866;50.160;14.768;2023-02-02T08:22:37;99279.75;;;3.46;100.00
46876;BME280;32866;50.160;14.768;2023-02-02T08:25:04;99273.94;;;3.47;100.00
46876;BME280;32866;50.160;14.768;2023-02-02T08:27:29;99282.81;;;3.55;100.00
46876;BME280;32866;50.160;14.768;2023-02-02T08:29:54;99295.94;;;3.67;100.00
46876;BME280;32866;50.160;14.768;2023-02-02T08:32:20;99280.53;;;3.46;100.00
46876;BME280;32866;50.160;14.768;2023-02-02T08:34:47;99294.84;;;3.47;100.00
46876;BME280;32866;50.160;14.768;2023-02-02T08:37:13;99310.69;;;3.59;100.00
46876;BME280;32866;50.160;14.768;2023-02-02T08:39:38;99306.06;;;3.49;100.00
46876;BME280;32866;50.160;14.768;2023-02-02T08:42:03;99300.66;;;3.49;100.00
46876;BME280;32866;50.160;14.768;2023-02-02T08:44:29;99303.34;;;3.56;100.00
46876;BME280;32866;50.160;14.768;2023-02-02T08:46:54;99314.50;;;3.72;100.00
46876;BME280;32866;50.160;14.768;2023-02-02T08:49:19;99293.66;;;3.62;100.00
46876;BME280;32866;50.160;14.768;2023-02-02T08:51:45;99326.50;;;3.82;100.00
46876;BME280;32866;50.160;14.768;2023-02-02T08:54:10;99329.56;;;3.88;100.00
46876;BME280;32866;50.160;14.768;2023-02-02T08:56:36;99326.06;;;3.91;100.00
46876;BME280;32866;50.160;14.768;2023-02-02T08:59:01;99308.31;;;3.76;100.00
46876;BME280;32866;50.160;14.768;2023-02-02T09:01:31;99343.16;;;3.77;100.00
46876;BME280;32866;50.160;14.768;2023-02-02T09:04:05;99333.81;;;3.82;100.00
46876;BME280;32866;50.160;14.768;2023-02-02T09:06:34;99338.84;;;3.87;100.00
46876;BME280;32866;50.160;14.768;2023-02-02T09:09:00;99336.91;;;3.91;100.00
46876;BME280;32866;50.160;14.768;2023-02-02T09:11:26;99352.75;;;4.00;100.00
46876;BME280;32866;50.160;14.768;2023-02-02T09:13:58;99343.06;;;4.02;100.00
46876;BME280;32866;50.160;14.768;2023-02-02T09:16:25;99353.13;;;3.98;100.00
46876;BME280;32866;50.160;14.768;2023-02-02T09:18:51;99353.09;;;4.05;100.00
46876;BME280;32866;50.160;14.768;2023-02-02T09:21:18;99355.44;;;4.11;100.00
46876;BME280;32866;50.160;14.768;2023-02-02T09:23:45;99359.31;;;4.06;100.00
46876;BME280;32866;50.160;14.768;2023-02-02T09:26:22;99364.34;;;4.00;100.00
46876;BME280;32866;50.160;14.768;2023-02-02T09:28:53;99362.03;;;4.06;100.00
46876;BME280;32866;50.160;14.768;2023-02-02T09:31:19;99350.78;;;4.00;100.00
46876;BME280;32866;50.160;14.768;2023-02-02T09:33:45;99366.63;;;4.16;100.00
46876;BME280;32866;50.160;14.768;2023-02-02T09:36:18;99366.19;;;4.25;100.00
46876;BME280;32866;50.160;14.768;2023-02-02T09:38:47;99363.94;;;4.05;100.00
46876;BME280;32866;50.160;14.768;2023-02-02T09:47:11;99391.00;;;4.20;100.00
46876;BME280;32866;50.160;14.768;2023-02-02T09:49:56;99389.13;;;4.09;100.00
46876;BME280;32866;50.160;14.768;2023-02-02T09:52:33;99398.00;;;4.21;100.00
46876;BME280;32866;50.160;14.768;2023-02-02T09:55:05;99389.38;;;4.40;100.00
46876;BME280;32866;50.160;14.768;2023-02-02T09:57:38;99375.50;;;4.20;100.00
46876;BME280;32866;50.160;14.768;2023-02-02T10:00:18;99380.91;;;4.31;100.00
46876;BME280;32866;50.160;14.768;2023-02-02T10:02:48;99380.53;;;4.29;100.00
46876;BME280;32866;50.160;14.768;2023-02-02T10:05:24;99397.97;;;4.28;100.00
46876;BME280;32866;50.160;14.768;2023-02-02T10:07:53;99402.09;;;4.51;100.00
46876;BME280;32866;50.160;14.768;2023-02-02T10:10:40;99405.53;;;4.62;100.00
46876;BME280;32866;50.160;14.768;2023-02-02T10:13:17;99398.59;;;4.54;100.00
46876;BME280;32866;50.160;14.768;2023-02-02T10:15:52;99366.88;;;4.40;100.00
46876;BME280;32866;50.160;14.768;2023-02-02T10:21:21;99404.50;;;5.01;100.00
46876;BME280;32866;50.160;14.768;2023-02-02T10:23:50;99406.25;;;5.26;100.00
46876;BME280;32866;50.160;14.768;2023-02-02T10:26:20;99403.66;;;5.11;100.00
46876;BME280;32866;50.160;14.768;2023-02-02T10:29:02;99393.47;;;5.23;100.00
46876;BME280;32866;50.160;14.768;2023-02-02T10:32:33;99411.22;;;5.38;100.00
46876;BME280;32866;50.160;14.768;2023-02-02T10:34:48;99402.44;;;5.16;100.00
46876;BME280;32866;50.160;14.768;2023-02-02T10:37:50;99393.56;;;5.12;100.00
46876;BME280;32866;50.160;14.768;2023-02-02T10:43:51;99397.78;;;5.62;100.00
46876;BME280;32866;50.160;14.768;2023-02-02T10:46:21;99384.63;;;5.56;100.00
46876;BME280;32866;50.160;14.768;2023-02-02T10:48:48;99367.97;;;5.13;100.00
46876;BME280;32866;50.160;14.768;2023-02-02T10:51:21;99402.63;;;5.39;100.00
46876;BME280;32866;50.160;14.768;2023-02-02T10:53:58;99360.56;;;5.13;100.00
46876;BME280;32866;50.160;14.768;2023-02-02T10:56:39;99401.78;;;5.46;100.00
46876;BME280;32866;50.160;14.768;2023-02-02T10:59:18;99384.47;;;5.71;100.00
46876;BME280;32866;50.160;14.768;2023-02-02T11:01:45;99404.84;;;5.93;100.00
46876;BME280;32866;50.160;14.768;2023-02-02T11:04:12;99368.47;;;5.80;100.00
46876;BME280;32866;50.160;14.768;2023-02-02T11:06:57;99390.41;;;7.13;100.00
46876;BME280;32866;50.160;14.768;2023-02-02T11:09:40;99401.56;;;7.89;100.00
46876;BME280;32866;50.160;14.768;2023-02-02T11:12:24;99428.47;;;6.65;100.00
46876;BME280;32866;50.160;14.768;2023-02-02T11:14:58;99421.31;;;6.17;100.00
46876;BME280;32866;50.160;14.768;2023-02-02T11:17:26;99400.88;;;5.64;100.00
46876;BME280;32866;50.160;14.768;2023-02-02T11:19:52;99412.78;;;5.77;100.00
46876;BME280;32866;50.160;14.768;2023-02-02T11:24:56;99418.09;;;5.50;100.00
46876;BME280;32866;50.160;14.768;2023-02-02T11:27:23;99390.22;;;5.38;100.00
46876;BME280;32866;50.160;14.768;2023-02-02T11:29:52;99405.97;;;5.13;100.00
46876;BME280;32866;50.160;14.768;2023-02-02T11:34:45;99417.13;;;6.71;100.00
46876;BME280;32866;50.160;14.768;2023-02-02T11:37:19;99407.38;;;6.97;100.00
46876;BME280;32866;50.160;14.768;2023-02-02T11:39:45;99384.97;;;8.00;100.00
46876;BME280;32866;50.160;14.768;2023-02-02T11:42:15;99424.28;;;8.43;100.00
46876;BME280;32866;50.160;14.768;2023-02-02T11:44:50;99388.84;;;7.59;100.00
46876;BME280;32866;50.160;14.768;2023-02-02T11:47:20;99419.31;;;7.97;100.00
46876;BME280;32866;50.160;14.768;2023-02-02T11:49:46;99403.66;;;9.27;100.00
46876;BME280;32866;50.160;14.768;2023-02-02T11:52:17;99411.06;;;9.43;100.00
46876;BME280;32866;50.160;14.768;2023-02-02T11:54:49;99410.38;;;9.85;96.31
46876;BME280;32866;50.160;14.768;2023-02-02T11:57:18;99408.47;;;10.40;94.00
46876;BME280;32866;50.160;14.768;2023-02-02T11:59:45;99409.16;;;10.70;91.52
46876;BME280;32866;50.160;14.768;2023-02-02T12:04:50;99415.72;;;10.47;89.33
46876;BME280;32866;50.160;14.768;2023-02-02T12:07:25;99411.88;;;9.27;94.89
46876;BME280;32866;50.160;14.768;2023-02-02T12:09:51;99377.47;;;9.59;92.67
46876;BME280;32866;50.160;14.768;2023-02-02T12:12:30;99414.97;;;9.75;91.13
46876;BME280;32866;50.160;14.768;2023-02-02T12:18:05;99433.16;;;10.11;88.37
46876;BME280;32866;50.160;14.768;2023-02-02T12:20:53;99405.19;;;8.43;95.44
46876;BME280;32866;50.160;14.768;2023-02-02T12:23:50;99424.56;;;8.08;96.95
46876;BME280;32866;50.160;14.768;2023-02-02T12:26:32;99407.59;;;7.33;97.48
46876;BME280;32866;50.160;14.768;2023-02-02T12:29:37;99388.41;;;6.66;100.00
46876;BME280;32866;50.160;14.768;2023-02-02T12:32:35;99417.69;;;6.27;100.00
46876;BME280;32866;50.160;14.768;2023-02-02T12:38:19;99410.59;;;6.64;100.00
46876;BME280;32866;50.160;14.768;2023-02-02T12:41:16;99419.63;;;6.85;100.00
46876;BME280;32866;50.160;14.768;2023-02-02T12:43:48;99402.59;;;6.50;100.00
46876;BME280;32866;50.160;14.768;2023-02-02T12:57:13;99423.47;;;6.29;100.00
46876;BME280;32866;50.160;14.768;2023-02-02T13:00:24;99407.41;;;6.69;100.00
46876;BME280;32866;50.160;14.768;2023-02-02T13:08:16;99412.59;;;6.29;100.00
46876;BME280;32866;50.160;14.768;2023-02-02T13:10:46;99411.78;;;5.98;100.00
46876;BME280;32866;50.160;14.768;2023-02-02T13:13:24;99431.63;;;5.95;100.00
46876;BME280;32866;50.160;14.768;2023-02-02T13:15:54;99413.88;;;6.21;100.00
46876;BME280;32866;50.160;14.768;2023-02-02T13:20:53;99439.72;;;6.95;100.00
46876;BME280;32866;50.160;14.768;2023-02-02T13:23:24;99448.78;;;7.39;100.00
46876;BME280;32866;50.160;14.768;2023-02-02T13:25:59;99448.41;;;6.59;100.00
46876;BME280;32866;50.160;14.768;2023-02-02T13:28:39;99433.97;;;5.97;100.00
46876;BME280;32866;50.160;14.768;2023-02-02T13:31:19;99434.09;;;5.82;100.00
46876;BME280;32866;50.160;14.768;2023-02-02T13:33:54;99419.81;;;6.12;100.00
46876;BME280;32866;50.160;14.768;2023-02-02T13:36:27;99406.19;;;6.74;97.05
46876;BME280;32866;50.160;14.768;2023-02-02T13:38:57;99404.91;;;6.82;96.01
46876;BME280;32866;50.160;14.768;2023-02-02T13:41:24;99447.91;;;6.67;96.81
46876;BME280;32866;50.160;14.768;2023-02-02T13:44:12;99457.97;;;6.71;97.47
46876;BME280;32866;50.160;14.768;2023-02-02T13:46:51;99454.34;;;6.50;97.06
46876;BME280;32866;50.160;14.768;2023-02-02T13:49:29;99435.28;;;6.19;98.76
46876;BME280;32866;50.160;14.768;2023-02-02T13:52:06;99444.44;;;6.32;99.65
46876;BME280;32866;50.160;14.768;2023-02-02T13:58:01;99461.53;;;5.99;100.00
46876;BME280;32866;50.160;14.768;2023-02-02T14:00:42;99467.69;;;5.61;100.00
46876;BME280;32866;50.160;14.768;2023-02-02T14:08:32;99469.34;;;5.48;100.00
46876;BME280;32866;50.160;14.768;2023-02-02T14:11:00;99478.72;;;5.39;100.00
46876;BME280;32866;50.160;14.768;2023-02-02T14:13:41;99488.00;;;5.46;100.00
46876;BME280;32866;50.160;14.768;2023-02-02T14:29:56;99508.84;;;5.60;100.00
46876;BME280;32866;50.160;14.768;2023-02-02T14:35:50;99512.44;;;5.49;100.00
46876;BME280;32866;50.160;14.768;2023-02-02T14:37:51;99505.94;;;5.36;100.00
46876;BME280;32866;50.160;14.768;2023-02-02T14:40:49;99535.94;;;5.22;100.00
46876;BME280;32866;50.160;14.768;2023-02-02T14:43:37;99524.00;;;5.01;100.00
46876;BME280;32866;50.160;14.768;2023-02-02T14:48:42;99548.06;;;4.99;100.00
46876;BME280;32866;50.160;14.768;2023-02-02T14:51:22;99538.91;;;4.64;100.00
46876;BME280;32866;50.160;14.768;2023-02-02T14:56:17;99554.13;;;4.25;100.00